Time;durP1;ratioP1;P1;durP2;ratioP2;P2;SDS_P1;SDS_P2;PMS_P1;PMS_P2;Temp;Humidity;BMP_temperature;BMP_pressure;BME280_temperature;BME280_humidity;BME280_pressure;Samples;Min_cycle;Max_cycle;Signal;HPM_P1;HPM_P2
2023/01/22 00:01:49;;;;;;;7.63;1.10;;;;;;;;;;4996487;28;20022;-31
2023/01/22 00:04:15;;;;;;;6.50;1.10;;;;;;;;;;4996590;28;20030;-30
2023/01/22 00:06:43;;;;;;;4.40;1.33;;;;;;;;;;4996558;28;20089;-30
2023/01/22 00:09:09;;;;;;;8.50;1.40;;;;;;;;;;4996374;28;20030;-31
2023/01/22 00:11:37;;;;;;;4.63;1.40;;;;;;;;;;4996375;28;20058;-30
2023/01/22 00:14:04;;;;;;;4.10;1.15;;;;;;;;;;4996343;28;20034;-31
2023/01/22 00:16:30;;;;;;;6.00;1.40;;;;;;;;;;4996384;28;20412;-30
2023/01/22 00:18:57;;;;;;;5.20;1.67;;;;;;;;;;4996333;28;20106;-31
2023/01/22 00:21:26;;;;;;;9.05;1.50;;;;;;;;;;4996075;28;20023;-31
2023/01/22 00:23:53;;;;;;;4.50;1.38;;;;;;;;;;4996004;28;20062;-30
2023/01/22 00:26:20;;;;;;;9.27;1.70;;;;;;;;;;4996240;28;20026;-31
2023/01/22 00:28:47;;;;;;;7.60;1.48;;;;;;;;;;4996141;28;20018;-30
2023/01/22 00:31:15;;;;;;;7.55;1.60;;;;;;;;;;4995944;28;20022;-31
2023/01/22 00:33:43;;;;;;;7.95;1.80;;;;;;;;;;4995730;28;20050;-30
2023/01/22 00:36:12;;;;;;;8.20;1.40;;;;;;;;;;4993909;28;20038;-30
2023/01/22 00:38:39;;;;;;;8.50;1.50;;;;;;;;;;4995876;28;20038;-31
2023/01/22 00:41:07;;;;;;;4.15;1.70;;;;;;;;;;4995859;28;20398;-31
2023/01/22 00:43:34;;;;;;;7.53;1.65;;;;;;;;;;4995861;28;20029;-31
2023/01/22 00:46:01;;;;;;;10.63;1.67;;;;;;;;;;4995841;28;20051;-30
2023/01/22 00:48:28;;;;;;;8.50;1.80;;;;;;;;;;4995754;28;20022;-31
2023/01/22 00:50:56;;;;;;;12.90;2.00;;;;;;;;;;4995629;28;20100;-30
2023/01/22 00:53:23;;;;;;;8.30;1.70;;;;;;;;;;4995632;28;20393;-31
2023/01/22 00:55:57;;;;;;;12.27;2.53;;;;;;;;;;4995504;28;20076;-31
2023/01/22 00:58:25;;;;;;;9.45;1.90;;;;;;;;;;4995586;28;20022;-31
2023/01/22 01:00:52;;;;;;;10.85;2.30;;;;;;;;;;4995342;28;20527;-30
2023/01/22 01:03:31;;;;;;;14.90;2.90;;;;;;;;;;4995379;28;20129;-30
2023/01/22 01:06:03;;;;;;;9.63;2.33;;;;;;;;;;4995380;28;20042;-30
2023/01/22 01:08:31;;;;;;;16.60;2.78;;;;;;;;;;4995417;28;20138;-31
2023/01/22 01:11:00;;;;;;;14.75;3.47;;;;;;;;;;4995383;28;20133;-30
2023/01/22 01:13:27;;;;;;;10.57;2.33;;;;;;;;;;4995335;28;20058;-31
2023/01/22 01:16:07;;;;;;;14.88;3.40;;;;;;;;;;4995300;28;20037;-30
2023/01/22 01:18:34;;;;;;;13.68;2.92;;;;;;;;;;4995227;28;20496;-30
2023/01/22 01:21:03;;;;;;;13.77;2.85;;;;;;;;;;4994976;28;20050;-31
2023/01/22 01:23:30;;;;;;;13.25;3.33;;;;;;;;;;4995101;28;20037;-30
2023/01/22 01:25:57;;;;;;;14.80;3.30;;;;;;;;;;4995016;28;20038;-30
2023/01/22 01:28:24;;;;;;;12.05;3.45;;;;;;;;;;4995192;28;20038;-30
2023/01/22 01:30:51;;;;;;;11.68;3.00;;;;;;;;;;4994849;28;20037;-30
2023/01/22 01:33:18;;;;;;;21.50;4.18;;;;;;;;;;4994728;28;20050;-31
2023/01/22 01:35:45;;;;;;;15.60;3.60;;;;;;;;;;4994965;28;20481;-30
2023/01/22 01:38:12;;;;;;;13.23;3.40;;;;;;;;;;4994797;28;20034;-30
2023/01/22 01:40:45;;;;;;;14.52;3.65;;;;;;;;;;4994606;28;20053;-30
2023/01/22 01:43:15;;;;;;;15.35;3.65;;;;;;;;;;4994659;28;20035;-31
2023/01/22 01:45:43;;;;;;;16.77;3.83;;;;;;;;;;4994583;28;20077;-31
2023/01/22 01:48:22;;;;;;;13.70;3.70;;;;;;;;;;4994315;28;20105;-30
2023/01/22 01:50:55;;;;;;;12.98;4.47;;;;;;;;;;4994569;28;20029;-31
2023/01/22 01:53:22;;;;;;;15.50;4.20;;;;;;;;;;4994560;28;20030;-30
2023/01/22 01:55:49;;;;;;;14.23;4.07;;;;;;;;;;4994456;28;20033;-30
2023/01/22 01:58:20;;;;;;;17.45;4.43;;;;;;;;;;4994507;28;20062;-31
2023/01/22 02:00:52;;;;;;;17.13;4.60;;;;;;;;;;4994304;28;20042;-31
2023/01/22 02:03:19;;;;;;;17.63;4.72;;;;;;;;;;4994310;28;20401;-31
2023/01/22 02:05:46;;;;;;;21.15;5.43;;;;;;;;;;4994278;28;20523;-30
2023/01/22 02:08:13;;;;;;;17.85;4.65;;;;;;;;;;4994273;28;20065;-30
2023/01/22 02:10:40;;;;;;;16.60;5.00;;;;;;;;;;4994162;28;20520;-30
2023/01/22 02:13:10;;;;;;;10.90;4.88;;;;;;;;;;4994519;28;20389;-31
2023/01/22 02:15:38;;;;;;;17.52;5.82;;;;;;;;;;4994244;28;20041;-31
2023/01/22 02:18:05;;;;;;;22.67;5.93;;;;;;;;;;4993931;28;20481;-31
2023/01/22 02:20:36;;;;;;;18.42;5.57;;;;;;;;;;4993976;28;20023;-31
2023/01/22 02:23:04;;;;;;;15.65;5.57;;;;;;;;;;4993941;28;20400;-31
2023/01/22 02:25:32;;;;;;;19.45;6.45;;;;;;;;;;4993945;28;20038;-30
2023/01/22 02:28:00;;;;;;;17.60;6.57;;;;;;;;;;4993771;28;20038;-31
2023/01/22 02:30:27;;;;;;;19.75;6.20;;;;;;;;;;4993800;28;20047;-30
2023/01/22 02:32:54;;;;;;;16.38;6.32;;;;;;;;;;4993728;28;20061;-31
2023/01/22 02:35:21;;;;;;;17.45;6.53;;;;;;;;;;4993799;28;20080;-31
2023/01/22 02:37:49;;;;;;;16.88;6.80;;;;;;;;;;4993822;28;20026;-30
2023/01/22 02:40:16;;;;;;;16.98;6.97;;;;;;;;;;4993696;28;20064;-31
2023/01/22 02:42:43;;;;;;;15.38;7.18;;;;;;;;;;4993659;28;20035;-31
2023/01/22 02:45:10;;;;;;;13.52;7.07;;;;;;;;;;4993587;28;20085;-30
2023/01/22 02:47:37;;;;;;;17.20;7.50;;;;;;;;;;4993702;28;20025;-30
2023/01/22 02:50:04;;;;;;;16.90;7.43;;;;;;;;;;4993484;28;20511;-31
2023/01/22 02:52:31;;;;;;;18.60;7.95;;;;;;;;;;4993561;28;20065;-31
2023/01/22 02:54:58;;;;;;;17.77;8.60;;;;;;;;;;4993390;28;20046;-31
2023/01/22 02:57:25;;;;;;;17.88;8.48;;;;;;;;;;4993456;28;20059;-30
2023/01/22 02:59:52;;;;;;;24.92;8.40;;;;;;;;;;4993001;28;20487;-31
2023/01/22 03:02:19;;;;;;;16.40;7.32;;;;;;;;;;4993132;28;20030;-30
2023/01/22 03:04:48;;;;;;;16.60;7.60;;;;;;;;;;4993199;28;20034;-32
2023/01/22 03:07:16;;;;;;;19.42;8.18;;;;;;;;;;4993205;28;20038;-30
2023/01/22 03:09:44;;;;;;;18.48;7.82;;;;;;;;;;4993427;28;20037;-31
2023/01/22 03:12:12;;;;;;;18.10;7.80;;;;;;;;;;4993343;28;20077;-30
2023/01/22 03:22:55;;;;;;;18.33;9.43;;;;;;;;;;4993253;28;20092;-30
2023/01/22 03:25:22;;;;;;;13.98;8.35;;;;;;;;;;4993078;28;20436;-30
2023/01/22 03:30:34;;;;;;;17.45;8.85;;;;;;;;;;4993379;28;20069;-31
2023/01/22 03:33:01;;;;;;;15.80;8.52;;;;;;;;;;4993036;28;20090;-31
2023/01/22 03:35:28;;;;;;;12.77;8.20;;;;;;;;;;4993140;28;20512;-31
2023/01/22 03:37:55;;;;;;;21.17;9.35;;;;;;;;;;4993120;28;20595;-31
2023/01/22 03:40:22;;;;;;;20.13;9.48;;;;;;;;;;4993002;28;20038;-31
2023/01/22 03:42:49;;;;;;;17.58;9.65;;;;;;;;;;4993109;28;20473;-30
2023/01/22 03:45:16;;;;;;;18.25;9.15;;;;;;;;;;4993030;28;20131;-31
2023/01/22 03:47:43;;;;;;;19.45;9.10;;;;;;;;;;4993014;28;20030;-31
2023/01/22 03:50:10;;;;;;;17.88;8.88;;;;;;;;;;4992895;28;20027;-30
2023/01/22 03:52:37;;;;;;;19.73;9.65;;;;;;;;;;4992912;28;20031;-31
2023/01/22 03:55:04;;;;;;;16.23;9.70;;;;;;;;;;4992905;28;20030;-31
2023/01/22 03:57:31;;;;;;;16.65;9.70;;;;;;;;;;4975491;28;20401;-31
2023/01/22 04:00:00;;;;;;;19.80;9.90;;;;;;;;;;4992839;28;20069;-31
2023/01/22 04:02:28;;;;;;;16.95;9.50;;;;;;;;;;4992779;28;20049;-31
2023/01/22 04:04:55;;;;;;;23.02;9.45;;;;;;;;;;4992777;28;20374;-31
2023/01/22 04:07:22;;;;;;;17.73;9.25;;;;;;;;;;4992915;28;20037;-30
2023/01/22 04:09:49;;;;;;;16.20;9.93;;;;;;;;;;5003315;28;20025;-30
2023/01/22 04:12:16;;;;;;;19.77;10.85;;;;;;;;;;5016123;28;20046;-31
2023/01/22 04:14:43;;;;;;;21.17;10.07;;;;;;;;;;5016031;28;20412;-31
2023/01/22 04:17:10;;;;;;;17.92;9.77;;;;;;;;;;5016023;28;20109;-31
2023/01/22 04:19:37;;;;;;;18.23;9.95;;;;;;;;;;5015986;28;20045;-31
2023/01/22 04:22:03;;;;;;;18.20;9.55;;;;;;;;;;5015851;28;20026;-31
2023/01/22 04:24:30;;;;;;;15.05;9.70;;;;;;;;;;5015686;28;20099;-30
2023/01/22 04:26:57;;;;;;;19.92;10.35;;;;;;;;;;5015808;28;20751;-31
2023/01/22 04:29:24;;;;;;;18.10;10.73;;;;;;;;;;5015851;28;20074;-32
2023/01/22 04:31:51;;;;;;;16.55;9.73;;;;;;;;;;5015868;28;20160;-31
2023/01/22 04:34:19;;;;;;;19.23;9.60;;;;;;;;;;5015429;28;20111;-30
2023/01/22 04:36:46;;;;;;;17.38;9.70;;;;;;;;;;5015697;28;20018;-30
2023/01/22 04:39:12;;;;;;;15.18;10.45;;;;;;;;;;5015560;28;20032;-30
2023/01/22 04:41:39;;;;;;;18.23;10.25;;;;;;;;;;5015483;28;20033;-30
2023/01/22 04:44:06;;;;;;;20.92;9.55;;;;;;;;;;5015430;28;20101;-30
2023/01/22 04:46:33;;;;;;;16.45;9.43;;;;;;;;;;5015503;28;20105;-30
2023/01/22 04:49:00;;;;;;;14.98;9.85;;;;;;;;;;5015460;28;20092;-31
2023/01/22 04:51:27;;;;;;;16.95;9.38;;;;;;;;;;5015315;28;20029;-32
2023/01/22 04:53:54;;;;;;;17.58;10.20;;;;;;;;;;5015305;28;20026;-30
2023/01/22 04:56:21;;;;;;;18.35;10.25;;;;;;;;;;5015336;28;20080;-30
2023/01/22 04:58:48;;;;;;;16.60;9.45;;;;;;;;;;5001006;28;20042;-31
2023/01/22 05:01:15;;;;;;;19.38;9.75;;;;;;;;;;4995589;28;20053;-30
2023/01/22 05:03:42;;;;;;;16.65;10.75;;;;;;;;;;4978007;28;20454;-30
2023/01/22 05:06:09;;;;;;;16.75;10.23;;;;;;;;;;4995431;28;20026;-31
2023/01/22 05:08:36;;;;;;;16.20;10.00;;;;;;;;;;4995419;28;20080;-31
2023/01/22 05:11:03;;;;;;;16.38;9.50;;;;;;;;;;4995401;28;20030;-30
2023/01/22 05:13:30;;;;;;;15.75;9.48;;;;;;;;;;4995473;28;20552;-30
2023/01/22 05:15:57;;;;;;;18.50;9.40;;;;;;;;;;4995425;28;20031;-31
2023/01/22 05:18:24;;;;;;;18.08;10.98;;;;;;;;;;4995210;28;20046;-31
2023/01/22 05:20:51;;;;;;;16.45;9.50;;;;;;;;;;4995097;28;20030;-31
2023/01/22 05:23:18;;;;;;;18.50;10.10;;;;;;;;;;4994564;28;20034;-31
2023/01/22 05:25:49;;;;;;;16.80;10.10;;;;;;;;;;4995057;28;20049;-30
2023/01/22 05:28:16;;;;;;;17.58;10.23;;;;;;;;;;4995142;28;20027;-31
2023/01/22 05:30:43;;;;;;;15.35;10.05;;;;;;;;;;4994793;28;20037;-30
2023/01/22 05:33:10;;;;;;;16.92;9.70;;;;;;;;;;4994798;28;20054;-30
2023/01/22 05:35:37;;;;;;;17.67;9.60;;;;;;;;;;4995067;28;20061;-31
2023/01/22 05:38:03;;;;;;;16.70;9.88;;;;;;;;;;4995021;28;20386;-31
2023/01/22 05:40:30;;;;;;;16.08;9.75;;;;;;;;;;4994801;28;20077;-31
2023/01/22 05:42:57;;;;;;;15.18;9.43;;;;;;;;;;4994916;28;20023;-30
2023/01/22 05:45:24;;;;;;;13.98;9.43;;;;;;;;;;4994802;28;20030;-30
2023/01/22 05:47:53;;;;;;;14.18;9.98;;;;;;;;;;4994716;28;20100;-31
2023/01/22 05:50:20;;;;;;;15.80;9.80;;;;;;;;;;4994548;28;20481;-30
2023/01/22 05:52:47;;;;;;;17.13;9.88;;;;;;;;;;4994709;28;20019;-31
2023/01/22 05:55:14;;;;;;;14.40;9.98;;;;;;;;;;4994617;28;20030;-31
2023/01/22 05:57:41;;;;;;;14.77;9.73;;;;;;;;;;4994450;28;20041;-31
2023/01/22 06:00:08;;;;;;;16.05;9.60;;;;;;;;;;4994495;28;20109;-31
2023/01/22 06:02:35;;;;;;;13.68;9.45;;;;;;;;;;5007098;28;20025;-31
2023/01/22 06:05:02;;;;;;;15.05;9.68;;;;;;;;;;5013973;28;20084;-31
2023/01/22 06:07:32;;;;;;;15.35;9.52;;;;;;;;;;5013908;28;20540;-31
2023/01/22 06:09:59;;;;;;;13.85;9.60;;;;;;;;;;5013850;28;20025;-30
2023/01/22 06:12:26;;;;;;;16.58;9.65;;;;;;;;;;5013938;28;20029;-30
2023/01/22 06:14:53;;;;;;;16.65;9.88;;;;;;;;;;5013741;28;20084;-30
2023/01/22 06:17:21;;;;;;;14.82;8.98;;;;;;;;;;5013758;28;20030;-31
2023/01/22 06:19:48;;;;;;;13.73;8.85;;;;;;;;;;5013612;28;20117;-31
2023/01/22 06:22:15;;;;;;;17.10;9.35;;;;;;;;;;5013658;28;20057;-31
2023/01/22 06:24:42;;;;;;;11.88;9.35;;;;;;;;;;5013548;28;20046;-31
2023/01/22 06:27:09;;;;;;;12.98;8.88;;;;;;;;;;5013547;28;20018;-31
2023/01/22 06:29:35;;;;;;;14.40;8.77;;;;;;;;;;5013602;28;20100;-31
2023/01/22 06:32:02;;;;;;;16.42;8.80;;;;;;;;;;5013504;28;20497;-30
2023/01/22 06:34:29;;;;;;;12.18;8.90;;;;;;;;;;5013246;28;20045;-31
2023/01/22 06:36:56;;;;;;;13.20;8.20;;;;;;;;;;5013478;28;20050;-31
2023/01/22 06:39:23;;;;;;;11.18;8.10;;;;;;;;;;5013343;28;20025;-31
2023/01/22 06:41:50;;;;;;;13.20;8.82;;;;;;;;;;5013156;28;20022;-31
2023/01/22 06:44:17;;;;;;;13.25;8.85;;;;;;;;;;5013251;28;20084;-31
2023/01/22 06:46:45;;;;;;;13.63;8.20;;;;;;;;;;5013277;28;20440;-31
2023/01/22 06:49:13;;;;;;;13.73;8.75;;;;;;;;;;5013264;28;20067;-31
2023/01/22 06:51:40;;;;;;;13.40;7.93;;;;;;;;;;5013154;28;20044;-30
2023/01/22 06:54:07;;;;;;;12.30;8.30;;;;;;;;;;5013256;28;20026;-31
2023/01/22 06:56:34;;;;;;;11.70;7.95;;;;;;;;;;5013181;28;20022;-31
2023/01/22 06:59:01;;;;;;;10.73;8.05;;;;;;;;;;5013200;28;20022;-31
2023/01/22 07:01:28;;;;;;;12.68;7.95;;;;;;;;;;5012988;28;20026;-30
2023/01/22 07:03:55;;;;;;;13.10;8.30;;;;;;;;;;5012959;28;20080;-31
2023/01/22 07:06:22;;;;;;;11.43;7.88;;;;;;;;;;5012862;28;20397;-30
2023/01/22 07:08:49;;;;;;;14.10;7.90;;;;;;;;;;5013051;28;20029;-31
2023/01/22 07:11:16;;;;;;;9.45;7.47;;;;;;;;;;5012838;28;20033;-30
2023/01/22 07:13:43;;;;;;;11.38;7.65;;;;;;;;;;5012974;28;20030;-31
2023/01/22 07:16:11;;;;;;;12.25;7.53;;;;;;;;;;5012934;28;20084;-30
2023/01/22 07:18:38;;;;;;;8.65;6.90;;;;;;;;;;5012870;28;20034;-31
2023/01/22 07:21:05;;;;;;;11.45;7.90;;;;;;;;;;5012728;28;20100;-30
2023/01/22 07:23:32;;;;;;;9.43;7.07;;;;;;;;;;5012954;28;20030;-31
2023/01/22 07:25:59;;;;;;;10.98;7.65;;;;;;;;;;5012865;28;20038;-31
2023/01/22 07:28:26;;;;;;;10.93;7.53;;;;;;;;;;5012757;28;20054;-30
2023/01/22 07:30:55;;;;;;;9.00;6.82;;;;;;;;;;5012740;28;20074;-30
2023/01/22 07:33:22;;;;;;;8.85;7.10;;;;;;;;;;5012527;28;20054;-30
2023/01/22 07:35:56;;;;;;;10.98;7.07;;;;;;;;;;5012864;28;20464;-30
2023/01/22 07:38:23;;;;;;;13.82;7.05;;;;;;;;;;5012691;28;20108;-31
2023/01/22 07:40:50;;;;;;;11.45;7.53;;;;;;;;;;5012713;28;20022;-31
2023/01/22 07:43:17;;;;;;;10.77;7.43;;;;;;;;;;5012925;28;20034;-30
2023/01/22 07:45:44;;;;;;;9.80;6.90;;;;;;;;;;5014377;28;20551;-30
2023/01/22 07:48:11;;;;;;;8.95;6.53;;;;;;;;;;5016625;28;20037;-30
2023/01/22 07:50:39;;;;;;;9.40;6.88;;;;;;;;;;5016481;28;20501;-31
2023/01/22 07:53:06;;;;;;;10.00;6.70;;;;;;;;;;5016421;28;20040;-30
2023/01/22 07:55:33;;;;;;;8.82;6.97;;;;;;;;;;5016399;28;20124;-30
2023/01/22 07:58:05;;;;;;;9.25;6.82;;;;;;;;;;5016425;28;20428;-30
2023/01/22 08:00:34;;;;;;;9.98;7.10;;;;;;;;;;5016251;28;20052;-30
2023/01/22 08:03:01;;;;;;;9.73;6.47;;;;;;;;;;5016228;28;20068;-31
2023/01/22 08:05:28;;;;;;;10.68;6.72;;;;;;;;;;5016250;28;20030;-30
2023/01/22 08:07:55;;;;;;;9.82;6.10;;;;;;;;;;5016371;28;20040;-31
2023/01/22 08:10:22;;;;;;;10.95;6.65;;;;;;;;;;5016128;28;20076;-30
2023/01/22 08:12:49;;;;;;;8.15;6.40;;;;;;;;;;5016104;28;20022;-31
2023/01/22 08:15:15;;;;;;;6.65;5.93;;;;;;;;;;5015975;28;20030;-30
2023/01/22 08:17:42;;;;;;;8.05;6.10;;;;;;;;;;5016034;28;20026;-31
2023/01/22 08:20:10;;;;;;;11.75;6.90;;;;;;;;;;5015957;28;20049;-31
2023/01/22 08:22:37;;;;;;;8.05;6.35;;;;;;;;;;5016021;28;20018;-31
2023/01/22 08:25:04;;;;;;;8.38;6.13;;;;;;;;;;5015791;28;20026;-30
2023/01/22 08:27:33;;;;;;;7.82;6.00;;;;;;;;;;5015872;28;20029;-31
2023/01/22 08:30:01;;;;;;;9.20;5.95;;;;;;;;;;5015660;28;20038;-31
2023/01/22 08:32:28;;;;;;;8.20;5.97;;;;;;;;;;5015591;28;20389;-31
2023/01/22 08:34:55;;;;;;;11.77;6.30;;;;;;;;;;5015698;28;20029;-31
2023/01/22 08:37:23;;;;;;;7.18;5.28;;;;;;;;;;5015745;28;20481;-31
2023/01/22 08:39:50;;;;;;;7.82;6.00;;;;;;;;;;5015521;28;20484;-31
2023/01/22 08:42:17;;;;;;;8.95;6.00;;;;;;;;;;5015415;28;20038;-31
2023/01/22 08:44:44;;;;;;;7.18;5.53;;;;;;;;;;5015384;28;20097;-30
2023/01/22 08:47:11;;;;;;;9.77;6.07;;;;;;;;;;5015368;28;20535;-31
2023/01/22 08:49:38;;;;;;;7.35;5.82;;;;;;;;;;5015242;28;20065;-31
2023/01/22 08:52:05;;;;;;;7.80;5.53;;;;;;;;;;5015307;28;20018;-31
2023/01/22 08:54:31;;;;;;;9.07;5.60;;;;;;;;;;5015334;28;20034;-31
2023/01/22 08:56:58;;;;;;;10.68;5.60;;;;;;;;;;5014167;28;20018;-30
2023/01/22 08:59:25;;;;;;;7.03;5.45;;;;;;;;;;5015125;28;20388;-31
2023/01/22 09:01:52;;;;;;;7.90;5.68;;;;;;;;;;5015256;28;20485;-31
2023/01/22 09:04:19;;;;;;;6.00;5.13;;;;;;;;;;5015035;28;20485;-31
2023/01/22 09:06:46;;;;;;;9.02;5.50;;;;;;;;;;5015109;28;20033;-31
2023/01/22 09:09:13;;;;;;;8.80;6.03;;;;;;;;;;5015010;28;20026;-31
2023/01/22 09:11:40;;;;;;;7.97;5.55;;;;;;;;;;5015023;28;20029;-31
2023/01/22 09:14:08;;;;;;;6.53;5.40;;;;;;;;;;5015091;28;20029;-30
2023/01/22 09:16:36;;;;;;;8.27;5.50;;;;;;;;;;5014849;28;20484;-30
2023/01/22 09:19:03;;;;;;;8.23;5.57;;;;;;;;;;5014833;28;20022;-31
2023/01/22 09:21:30;;;;;;;7.72;5.15;;;;;;;;;;5014724;28;20018;-32
2023/01/22 09:23:57;;;;;;;7.63;5.13;;;;;;;;;;4997269;28;20419;-31
2023/01/22 09:26:24;;;;;;;6.70;5.13;;;;;;;;;;5014721;28;20126;-31
2023/01/22 09:28:51;;;;;;;5.45;4.63;;;;;;;;;;5014681;28;20044;-31
2023/01/22 09:31:17;;;;;;;6.32;4.95;;;;;;;;;;5014568;28;20120;-31
2023/01/22 09:33:44;;;;;;;6.05;4.72;;;;;;;;;;5014473;28;20054;-31
2023/01/22 09:36:13;;;;;;;5.93;5.15;;;;;;;;;;4997043;28;20108;-31
2023/01/22 09:38:40;;;;;;;7.15;5.50;;;;;;;;;;5014567;28;20049;-30
2023/01/22 09:41:13;;;;;;;6.15;4.60;;;;;;;;;;5014385;28;20103;-31
2023/01/22 09:43:46;;;;;;;6.93;4.80;;;;;;;;;;4996789;28;20025;-31
2023/01/22 09:46:16;;;;;;;5.45;4.07;;;;;;;;;;5014339;28;20443;-31
2023/01/22 09:48:46;;;;;;;6.63;5.10;;;;;;;;;;5014380;28;20050;-31
2023/01/22 09:51:14;;;;;;;7.43;4.78;;;;;;;;;;5014112;28;20045;-31
2023/01/22 09:53:42;;;;;;;6.72;5.10;;;;;;;;;;5014277;28;20045;-31
2023/01/22 09:56:17;;;;;;;8.18;4.78;;;;;;;;;;5014181;28;20113;-30
2023/01/22 09:58:47;;;;;;;6.05;4.45;;;;;;;;;;5014072;28;20030;-31
2023/01/22 10:01:14;;;;;;;5.63;4.30;;;;;;;;;;5013801;28;20030;-30
2023/01/22 10:03:43;;;;;;;8.23;5.22;;;;;;;;;;5014022;28;20072;-31
2023/01/22 10:06:12;;;;;;;5.32;4.15;;;;;;;;;;5013880;28;20026;-31
2023/01/22 10:08:59;;;;;;;6.63;4.53;;;;;;;;;;5013596;28;20071;-31
2023/01/22 10:11:26;;;;;;;7.35;4.38;;;;;;;;;;5000358;28;20530;-30
2023/01/22 10:13:57;;;;;;;5.28;3.92;;;;;;;;;;5013845;28;20030;-31
2023/01/22 10:16:24;;;;;;;6.65;4.63;;;;;;;;;;5013840;28;20022;-31
2023/01/22 10:18:54;;;;;;;6.47;4.60;;;;;;;;;;5013776;28;20021;-31
2023/01/22 10:21:24;;;;;;;5.43;4.28;;;;;;;;;;5013383;28;20030;-30
2023/01/22 10:23:54;;;;;;;4.93;4.00;;;;;;;;;;5013593;28;20026;-31
2023/01/22 10:27:00;;;;;;;5.80;4.25;;;;;;;;;;5013486;28;20503;-31
2023/01/22 10:29:27;;;;;;;4.97;3.97;;;;;;;;;;4933911;29;20111;-31
2023/01/22 10:31:56;;;;;;;5.68;4.07;;;;;;;;;;4933845;29;20032;-30
2023/01/22 10:34:22;;;;;;;6.72;4.28;;;;;;;;;;4973681;28;20050;-31
2023/01/22 10:36:50;;;;;;;4.35;3.80;;;;;;;;;;5013328;28;20057;-31
2023/01/22 10:39:18;;;;;;;4.72;3.70;;;;;;;;;;5013271;28;20029;-31
2023/01/22 10:41:45;;;;;;;5.13;4.22;;;;;;;;;;5013276;28;20584;-31
2023/01/22 10:44:20;;;;;;;5.88;4.07;;;;;;;;;;5013248;28;20030;-31
2023/01/22 10:46:49;;;;;;;8.18;3.70;;;;;;;;;;5013218;28;20022;-30
2023/01/22 10:49:23;;;;;;;4.45;3.97;;;;;;;;;;5013000;28;20485;-30
2023/01/22 10:51:53;;;;;;;5.97;3.75;;;;;;;;;;5013164;28;20058;-31
2023/01/22 10:54:29;;;;;;;4.32;3.53;;;;;;;;;;5013285;28;20108;-30
2023/01/22 10:57:14;;;;;;;6.10;3.63;;;;;;;;;;5013093;28;20469;-30
2023/01/22 10:59:47;;;;;;;5.65;3.80;;;;;;;;;;5012986;28;20538;-30
2023/01/22 11:02:23;;;;;;;4.70;3.33;;;;;;;;;;5013072;28;20076;-30
2023/01/22 11:04:50;;;;;;;4.60;3.20;;;;;;;;;;5013009;28;20078;-30
2023/01/22 11:07:19;;;;;;;5.93;3.40;;;;;;;;;;5013044;28;20416;-31
2023/01/22 11:09:49;;;;;;;4.38;3.55;;;;;;;;;;5012891;28;20022;-30
2023/01/22 11:12:28;;;;;;;3.75;3.22;;;;;;;;;;5012896;28;20022;-30
2023/01/22 11:15:02;;;;;;;3.40;2.90;;;;;;;;;;5012927;28;20049;-30
2023/01/22 11:17:39;;;;;;;4.22;3.17;;;;;;;;;;5012915;28;20512;-30
2023/01/22 11:20:14;;;;;;;4.15;3.10;;;;;;;;;;5012095;28;20029;-30
2023/01/22 11:22:42;;;;;;;3.40;2.80;;;;;;;;;;5012898;28;20021;-30
2023/01/22 11:25:11;;;;;;;3.70;2.72;;;;;;;;;;5012720;28;20062;-30
2023/01/22 11:27:38;;;;;;;3.47;2.80;;;;;;;;;;5012720;28;20026;-30
2023/01/22 11:30:08;;;;;;;4.47;3.10;;;;;;;;;;5012769;28;20022;-30
2023/01/22 11:32:53;;;;;;;3.20;2.83;;;;;;;;;;5012646;28;20522;-30
2023/01/22 11:35:20;;;;;;;3.08;2.50;;;;;;;;;;5012679;28;20093;-30
2023/01/22 11:38:13;;;;;;;3.40;2.70;;;;;;;;;;5012658;28;20026;-30
2023/01/22 11:40:53;;;;;;;3.10;2.53;;;;;;;;;;5012597;28;20503;-30
2023/01/22 11:43:29;;;;;;;4.88;2.58;;;;;;;;;;5012535;28;20396;-31
2023/01/22 11:46:02;;;;;;;4.95;2.58;;;;;;;;;;5012540;28;20030;-30
2023/01/22 11:48:48;;;;;;;3.72;2.55;;;;;;;;;;5012576;28;20084;-31
2023/01/22 11:51:20;;;;;;;5.55;2.60;;;;;;;;;;5012385;28;20472;-30
2023/01/22 11:54:10;;;;;;;2.72;2.47;;;;;;;;;;5012582;28;20021;-31
2023/01/22 11:56:40;;;;;;;4.03;2.70;;;;;;;;;;4975987;28;20378;-31
2023/01/22 11:59:22;;;;;;;3.70;2.53;;;;;;;;;;5012467;28;20105;-30
2023/01/22 12:01:56;;;;;;;3.42;2.50;;;;;;;;;;5012642;28;20022;-31
2023/01/22 12:04:26;;;;;;;4.97;2.60;;;;;;;;;;5012328;28;20018;-30
2023/01/22 12:06:56;;;;;;;3.60;2.40;;;;;;;;;;5012370;28;20105;-30
2023/01/22 12:09:35;;;;;;;3.33;2.42;;;;;;;;;;5012343;28;20053;-30
2023/01/22 12:12:11;;;;;;;3.70;2.45;;;;;;;;;;5012420;28;20030;-31
2023/01/22 12:14:47;;;;;;;4.85;2.60;;;;;;;;;;5012592;28;20384;-30
2023/01/22 12:17:32;;;;;;;3.35;2.50;;;;;;;;;;5012234;28;20548;-31
2023/01/22 12:20:17;;;;;;;3.17;2.20;;;;;;;;;;5012252;28;20033;-30
2023/01/22 12:22:52;;;;;;;4.60;2.10;;;;;;;;;;5012216;28;20392;-30
2023/01/22 12:25:19;;;;;;;3.55;2.17;;;;;;;;;;5012240;28;20022;-31
2023/01/22 12:27:46;;;;;;;6.25;2.42;;;;;;;;;;5012217;28;20026;-31
2023/01/22 12:30:23;;;;;;;3.47;2.70;;;;;;;;;;5012006;28;20129;-31
2023/01/22 12:32:58;;;;;;;3.25;2.10;;;;;;;;;;5015108;28;20413;-30
2023/01/22 12:35:27;;;;;;;4.25;2.50;;;;;;;;;;5015592;28;20480;-31
2023/01/22 12:37:59;;;;;;;3.40;2.20;;;;;;;;;;5015639;28;20504;-30
2023/01/22 12:40:49;;;;;;;4.13;2.10;;;;;;;;;;5015421;28;20029;-30
2023/01/22 12:43:17;;;;;;;3.33;2.30;;;;;;;;;;5015585;28;20476;-30
2023/01/22 12:46:04;;;;;;;5.10;2.00;;;;;;;;;;5015318;28;20054;-30
2023/01/22 12:48:46;;;;;;;2.88;2.45;;;;;;;;;;5015330;28;20105;-31
2023/01/22 12:51:24;;;;;;;5.05;2.40;;;;;;;;;;5015253;28;20026;-30
2023/01/22 12:53:52;;;;;;;6.03;2.25;;;;;;;;;;5015298;28;20440;-31
2023/01/22 12:56:29;;;;;;;4.95;2.10;;;;;;;;;;5015229;28;20113;-31
2023/01/22 12:58:57;;;;;;;3.05;2.13;;;;;;;;;;5015150;28;20033;-30
2023/01/22 13:01:31;;;;;;;3.70;2.50;;;;;;;;;;5015260;28;20496;-31
2023/01/22 13:03:59;;;;;;;3.40;2.05;;;;;;;;;;5015098;28;20032;-31
2023/01/22 13:06:37;;;;;;;3.22;2.13;;;;;;;;;;5014945;28;20022;-30
2023/01/22 13:09:22;;;;;;;3.30;2.28;;;;;;;;;;5014793;28;20105;-31
2023/01/22 13:11:49;;;;;;;6.10;1.98;;;;;;;;;;5014993;28;20026;-31
2023/01/22 13:14:16;;;;;;;3.38;1.90;;;;;;;;;;5014943;28;20018;-31
2023/01/22 13:16:50;;;;;;;3.67;1.80;;;;;;;;;;5014905;28;20451;-31
2023/01/22 13:19:20;;;;;;;4.55;2.40;;;;;;;;;;5014749;28;20018;-31
2023/01/22 13:21:47;;;;;;;5.38;2.28;;;;;;;;;;4997501;28;20041;-30
2023/01/22 13:24:16;;;;;;;4.38;2.03;;;;;;;;;;5014673;28;20046;-30
2023/01/22 13:26:50;;;;;;;5.38;2.30;;;;;;;;;;5014699;28;20041;-31
2023/01/22 13:29:19;;;;;;;3.38;2.10;;;;;;;;;;5014564;28;20022;-31
2023/01/22 13:31:52;;;;;;;2.88;2.00;;;;;;;;;;5014567;28;20018;-31
2023/01/22 13:34:19;;;;;;;3.63;1.95;;;;;;;;;;5014368;28;20057;-31
2023/01/22 13:36:47;;;;;;;3.85;2.28;;;;;;;;;;5014587;28;20025;-31
2023/01/22 13:39:28;;;;;;;3.50;2.05;;;;;;;;;;5014373;28;20028;-30
2023/01/22 13:41:57;;;;;;;2.90;2.10;;;;;;;;;;5014605;28;20029;-31
2023/01/22 13:44:25;;;;;;;2.85;1.80;;;;;;;;;;5013769;28;20104;-31
2023/01/22 13:46:52;;;;;;;3.00;1.80;;;;;;;;;;5014230;28;20034;-30
2023/01/22 13:49:19;;;;;;;6.85;2.08;;;;;;;;;;5014324;28;20417;-31
2023/01/22 13:51:46;;;;;;;2.80;1.77;;;;;;;;;;5014260;28;20029;-30
2023/01/22 13:54:33;;;;;;;2.95;1.92;;;;;;;;;;5014157;28;20022;-31
2023/01/22 13:57:00;;;;;;;2.45;1.95;;;;;;;;;;5014156;28;20033;-31
2023/01/22 13:59:34;;;;;;;3.08;1.95;;;;;;;;;;5014112;28;20032;-30
2023/01/22 14:02:33;;;;;;;2.97;1.77;;;;;;;;;;5013903;28;20026;-31
2023/01/22 14:05:00;;;;;;;2.88;1.90;;;;;;;;;;4971220;28;20042;-31
2023/01/22 14:07:29;;;;;;;3.30;1.75;;;;;;;;;;5013991;28;20024;-30
2023/01/22 14:09:57;;;;;;;3.40;2.00;;;;;;;;;;5013776;28;20026;-31
2023/01/22 14:12:25;;;;;;;4.28;1.90;;;;;;;;;;5013159;28;20038;-31
2023/01/22 14:14:54;;;;;;;4.05;1.88;;;;;;;;;;5013713;28;20139;-31
2023/01/22 14:17:21;;;;;;;4.15;2.00;;;;;;;;;;5013812;28;20022;-31
2023/01/22 14:19:48;;;;;;;5.10;1.90;;;;;;;;;;5013583;28;20026;-31
2023/01/22 14:22:15;;;;;;;5.65;1.73;;;;;;;;;;5013658;28;20096;-31
2023/01/22 14:24:42;;;;;;;4.28;1.80;;;;;;;;;;5013595;28;20083;-31
2023/01/22 14:27:09;;;;;;;3.25;1.70;;;;;;;;;;5013661;28;20053;-32
2023/01/22 14:29:36;;;;;;;3.90;1.83;;;;;;;;;;5013395;28;20026;-31
2023/01/22 14:32:03;;;;;;;2.47;1.77;;;;;;;;;;5013566;28;20054;-31
2023/01/22 14:34:30;;;;;;;3.35;1.73;;;;;;;;;;5013420;28;20077;-31
2023/01/22 14:36:57;;;;;;;2.60;1.60;;;;;;;;;;5013488;28;20022;-31
2023/01/22 14:39:24;;;;;;;2.90;1.70;;;;;;;;;;5013288;28;20018;-31
2023/01/22 14:41:51;;;;;;;3.03;1.50;;;;;;;;;;5013433;28;20101;-31
2023/01/22 14:44:18;;;;;;;2.67;2.03;;;;;;;;;;5013381;28;20025;-31
2023/01/22 14:46:45;;;;;;;5.80;1.80;;;;;;;;;;5013311;28;20117;-30
2023/01/22 14:49:12;;;;;;;2.60;1.70;;;;;;;;;;5013125;28;20022;-31
2023/01/22 14:51:40;;;;;;;3.03;1.90;;;;;;;;;;5013276;28;20361;-31
2023/01/22 14:54:06;;;;;;;8.48;1.88;;;;;;;;;;5012799;28;20041;-31
2023/01/22 14:56:33;;;;;;;4.13;1.77;;;;;;;;;;5012600;28;20400;-30
2023/01/22 14:59:00;;;;;;;2.70;1.90;;;;;;;;;;5013031;28;20026;-31